Time;durP1;ratioP1;P1;durP2;ratioP2;P2;SDS_P1;SDS_P2;PMS_P1;PMS_P2;Temp;Humidity;BMP_temperature;BMP_pressure;BME280_temperature;BME280_humidity;BME280_pressure;Samples;Min_cycle;Max_cycle;Signal;HPM_P1;HPM_P2
2023/09/03 00:02:25;;;;;;;1.30;0.85;;;;;;;15.78;100.00;100892.78;7393007;19;20022;-95
2023/09/03 00:04:51;;;;;;;0.85;0.85;;;;;;;15.75;100.00;100888.13;7398566;19;20060;-95
2023/09/03 00:07:17;;;;;;;1.50;0.68;;;;;;;15.71;100.00;100881.94;7395202;19;20022;-96
2023/09/03 00:09:44;;;;;;;0.52;0.47;;;;;;;15.66;100.00;100879.78;7397508;19;21196;-94
2023/09/03 00:12:10;;;;;;;14.60;1.15;;;;;;;15.64;100.00;100885.13;7392186;19;20019;-95
2023/09/03 00:14:36;;;;;;;0.60;0.60;;;;;;;15.64;100.00;100882.31;7395144;19;20369;-95
2023/09/03 00:17:02;;;;;;;0.55;0.55;;;;;;;15.63;100.00;100892.00;7395897;19;20015;-96
2023/09/03 00:19:28;;;;;;;3.08;0.55;;;;;;;15.59;100.00;100891.44;7394671;19;20010;-95
2023/09/03 00:21:54;;;;;;;0.63;0.30;;;;;;;15.55;100.00;100888.81;7393633;19;20095;-95
2023/09/03 00:24:20;;;;;;;0.47;0.45;;;;;;;15.54;100.00;100894.91;7398304;19;20361;-96
2023/09/03 00:26:46;;;;;;;0.17;0.17;;;;;;;15.52;100.00;100891.81;7403584;19;20023;-96
2023/09/03 00:29:13;;;;;;;3.40;1.05;;;;;;;15.49;100.00;100896.38;7408139;19;20026;-96
2023/09/03 00:31:39;;;;;;;1.65;0.38;;;;;;;15.48;100.00;100885.63;7404042;19;20011;-95
2023/09/03 00:34:05;;;;;;;0.57;0.43;;;;;;;15.45;100.00;100880.97;7405418;19;20018;-96
2023/09/03 00:36:32;;;;;;;1.35;0.50;;;;;;;15.42;100.00;100881.94;7398013;19;20484;-96
2023/09/03 00:38:58;;;;;;;1.52;0.90;;;;;;;15.40;100.00;100871.16;7400469;19;20031;-96
2023/09/03 00:41:24;;;;;;;0.38;0.30;;;;;;;15.43;100.00;100884.28;7404311;19;20101;-96
2023/09/03 00:43:50;;;;;;;0.73;0.50;;;;;;;15.42;100.00;100879.88;7411329;19;20018;-96
2023/09/03 00:46:16;;;;;;;1.20;0.43;;;;;;;15.42;100.00;100888.28;7410071;19;20011;-95
2023/09/03 00:48:45;;;;;;;0.73;0.63;;;;;;;15.43;100.00;100889.06;7394217;19;20018;-95
2023/09/03 00:51:12;;;;;;;1.45;0.63;;;;;;;15.47;100.00;100895.28;7392921;19;20019;-95
2023/09/03 00:53:41;;;;;;;0.57;0.30;;;;;;;15.44;100.00;100897.03;7394454;19;20106;-96
2023/09/03 00:56:08;;;;;;;0.40;0.32;;;;;;;15.37;100.00;100903.03;7395283;19;20022;-95
2023/09/03 00:58:35;;;;;;;1.05;0.52;;;;;;;15.35;100.00;100897.13;7394952;19;20015;-94
2023/09/03 01:01:01;;;;;;;1.00;1.00;;;;;;;15.35;100.00;100882.31;7398791;19;20022;-94
2023/09/03 01:03:28;;;;;;;1.23;0.57;;;;;;;15.30;100.00;100885.78;7401510;19;20023;-95
2023/09/03 01:05:54;;;;;;;0.20;0.20;;;;;;;15.25;100.00;100878.81;7403430;19;20034;-95
2023/09/03 01:08:21;;;;;;;1.45;0.43;;;;;;;15.26;100.00;100883.19;7405203;19;20038;-96
2023/09/03 01:11:24;;;;;;;1.00;0.77;;;;;;;15.27;100.00;100865.06;7407851;19;20062;-95
2023/09/03 01:14:06;;;;;;;2.75;0.52;;;;;;;15.27;100.00;100859.44;7405984;19;20038;-94
2023/09/03 01:16:38;;;;;;;1.08;0.65;;;;;;;15.27;100.00;100872.72;7407758;19;20028;-94
2023/09/03 01:19:30;;;;;;;0.47;0.47;;;;;;;15.25;100.00;100864.78;7408461;19;20365;-95
2023/09/03 01:22:30;;;;;;;1.08;0.60;;;;;;;15.15;100.00;100869.72;7403257;19;20017;-95
2023/09/03 01:25:40;;;;;;;3.08;0.55;;;;;;;15.10;100.00;100873.19;7407065;19;20010;-96
2023/09/03 01:28:26;;;;;;;1.63;0.53;;;;;;;21.41;100.00;100866.97;7413744;19;20015;-96
2023/09/03 01:31:05;;;;;;;0.35;0.35;;;;;;;29.61;66.71;100857.28;7409526;19;20533;-95
2023/09/03 01:33:34;;;;;;;1.08;0.60;;;;;;;18.33;100.00;100885.13;7417293;19;20017;-95
2023/09/03 01:36:02;;;;;;;0.40;0.30;;;;;;;16.18;100.00;100892.88;7409240;19;20599;-95
2023/09/03 01:38:30;;;;;;;0.82;0.60;;;;;;;15.60;100.00;100887.34;7409904;19;20061;-95
2023/09/03 01:40:59;;;;;;;1.05;0.65;;;;;;;15.33;100.00;100882.03;7399178;19;20607;-96
2023/09/03 01:43:26;;;;;;;2.90;1.05;;;;;;;15.13;100.00;100889.06;7398574;19;20104;-95
2023/09/03 01:46:06;;;;;;;3.33;0.50;;;;;;;15.05;100.00;100887.88;7399259;19;20025;-95
2023/09/03 01:49:06;;;;;;;2.10;0.38;;;;;;;14.97;100.00;100891.53;7398481;19;20070;-95
2023/09/03 01:51:41;;;;;;;0.40;0.40;;;;;;;14.90;100.00;100914.38;7395433;19;20022;-95
2023/09/03 01:54:14;;;;;;;1.00;0.70;;;;;;;14.90;100.00;100915.13;7395227;19;20022;-95
2023/09/03 01:56:56;;;;;;;2.55;0.38;;;;;;;14.76;100.00;100910.25;7393771;19;20021;-94
2023/09/03 01:59:35;;;;;;;1.25;0.93;;;;;;;14.86;100.00;100911.72;7392895;19;20014;-95
2023/09/03 02:02:03;;;;;;;1.70;0.57;;;;;;;14.96;100.00;100902.00;7393321;19;20398;-95
2023/09/03 02:04:29;;;;;;;0.57;0.55;;;;;;;15.00;100.00;100902.59;7396815;19;20047;-95
2023/09/03 02:06:55;;;;;;;0.30;0.20;;;;;;;14.98;100.00;100899.50;7394555;19;20026;-94
2023/09/03 02:09:22;;;;;;;0.85;0.40;;;;;;;15.02;100.00;100908.50;7399377;19;20025;-94
2023/09/03 02:11:48;;;;;;;0.20;0.20;;;;;;;15.02;100.00;100921.75;7391431;19;20022;-86
2023/09/03 02:14:14;;;;;;;1.27;0.47;;;;;;;15.03;100.00;100912.06;7387512;19;20022;-86
2023/09/03 02:16:41;;;;;;;3.70;0.43;;;;;;;14.93;100.00;100914.19;7390001;19;20037;-86
2023/09/03 02:19:07;;;;;;;0.93;0.75;;;;;;;14.87;100.00;100916.09;7390163;19;20092;-85
2023/09/03 02:21:33;;;;;;;0.95;0.82;;;;;;;14.83;100.00;100917.53;7391318;19;20039;-86
2023/09/03 02:23:59;;;;;;;0.50;0.50;;;;;;;14.78;100.00;100916.16;7396298;19;20023;-86
2023/09/03 02:26:25;;;;;;;0.30;0.30;;;;;;;14.75;100.00;100914.31;7398020;19;20014;-85
2023/09/03 02:28:52;;;;;;;8.88;0.63;;;;;;;14.71;100.00;100916.53;7395128;19;20089;-85
2023/09/03 02:31:18;;;;;;;6.07;1.30;;;;;;;15.35;100.00;100907.56;7390791;19;20026;-85
2023/09/03 02:33:44;;;;;;;0.47;0.20;;;;;;;16.95;100.00;100898.78;7393344;19;20031;-85
2023/09/03 02:36:10;;;;;;;2.75;0.43;;;;;;;20.73;100.00;100891.28;7395198;19;20014;-85
2023/09/03 02:38:39;;;;;;;0.57;0.50;;;;;;;19.68;100.00;100895.06;7394459;19;20025;-84
2023/09/03 02:41:05;;;;;;;0.52;0.45;;;;;;;17.03;100.00;100899.88;7392042;19;20074;-85
2023/09/03 02:43:31;;;;;;;0.45;0.45;;;;;;;19.46;100.00;100906.38;7395236;19;20042;-85
2023/09/03 02:45:58;;;;;;;1.50;0.73;;;;;;;16.66;100.00;100905.31;7393332;19;20021;-85
2023/09/03 02:48:24;;;;;;;0.40;0.40;;;;;;;15.30;100.00;100911.03;7391899;19;20026;-85
2023/09/03 02:50:51;;;;;;;0.73;0.68;;;;;;;14.92;100.00;100909.81;7390973;19;20041;-85
2023/09/03 02:53:17;;;;;;;0.28;0.28;;;;;;;19.62;100.00;100905.59;7391907;19;20030;-85
2023/09/03 02:55:43;;;;;;;2.83;0.50;;;;;;;28.70;69.08;100890.63;7391733;19;20018;-85
2023/09/03 02:58:09;;;;;;;1.23;0.30;;;;;;;21.61;80.86;100901.34;7394262;19;20086;-86
2023/09/03 03:00:35;;;;;;;1.27;0.57;;;;;;;27.99;71.05;100897.59;7391256;19;20022;-85
2023/09/03 03:03:02;;;;;;;4.47;0.50;;;;;;;27.86;66.83;100889.91;7394986;19;20011;-85
2023/09/03 03:05:28;;;;;;;0.20;0.20;;;;;;;25.77;65.91;100886.19;7396693;19;20010;-85
2023/09/03 03:07:55;;;;;;;1.75;0.38;;;;;;;27.50;60.98;100890.09;7393289;19;20022;-85
2023/09/03 03:10:22;;;;;;;0.47;0.47;;;;;;;29.54;57.06;100886.06;7392215;19;20018;-85
2023/09/03 03:12:48;;;;;;;0.95;0.52;;;;;;;20.52;82.80;100907.06;7391061;19;20014;-85
2023/09/03 03:15:16;;;;;;;0.80;0.80;;;;;;;16.63;100.00;100911.91;7392594;19;20015;-85
2023/09/03 03:17:42;;;;;;;0.85;0.85;;;;;;;16.76;100.00;100913.63;7392313;19;20018;-86
2023/09/03 03:20:09;;;;;;;1.08;0.63;;;;;;;15.41;100.00;100916.84;7393796;19;20102;-85
2023/09/03 03:22:35;;;;;;;4.18;0.68;;;;;;;25.21;77.82;100898.88;7390532;19;20011;-86
2023/09/03 03:25:02;;;;;;;0.43;0.43;;;;;;;22.75;86.71;100909.84;7391983;19;20041;-85
2023/09/03 03:27:29;;;;;;;1.00;0.65;;;;;;;14.78;100.00;100935.78;7389673;19;20011;-85
2023/09/03 03:29:56;;;;;;;0.73;0.65;;;;;;;20.88;100.00;100924.94;7390646;19;20039;-86
2023/09/03 03:32:22;;;;;;;0.50;0.50;;;;;;;29.31;60.18;100908.38;7388817;19;20018;-85
2023/09/03 03:34:52;;;;;;;0.93;0.80;;;;;;;27.77;60.56;100914.16;7391563;19;20018;-86
2023/09/03 03:37:19;;;;;;;0.20;0.20;;;;;;;25.93;64.95;100905.72;7389647;19;20007;-85
2023/09/03 03:39:49;;;;;;;0.60;0.60;;;;;;;28.94;57.64;100904.31;7395835;19;20074;-86
2023/09/03 03:42:17;;;;;;;0.40;0.40;;;;;;;23.84;69.16;100903.88;7389031;19;20022;-86
2023/09/03 03:44:43;;;;;;;1.30;0.90;;;;;;;27.80;62.00;100897.94;7393203;19;20035;-85
2023/09/03 03:47:10;;;;;;;0.68;0.47;;;;;;;32.06;47.25;100891.41;7389832;19;20011;-84
2023/09/03 03:49:36;;;;;;;0.50;0.50;;;;;;;32.63;44.10;100882.13;7391576;19;20006;-86
2023/09/03 03:52:02;;;;;;;0.47;0.47;;;;;;;30.68;47.66;100889.47;7389985;19;20045;-86
2023/09/03 03:54:30;;;;;;;1.08;0.60;;;;;;;30.97;44.89;100890.47;7384968;19;20022;-85
2023/09/03 03:56:57;;;;;;;1.00;0.50;;;;;;;25.72;53.85;100898.50;7384511;19;20114;-86
2023/09/03 03:59:23;;;;;;;0.40;0.40;;;;;;;24.69;59.12;100904.63;7385497;19;20019;-85
2023/09/03 04:01:49;;;;;;;0.43;0.43;;;;;;;23.82;62.74;100905.72;7385354;19;20078;-85
2023/09/03 04:04:15;;;;;;;0.30;0.30;;;;;;;24.45;61.29;100902.78;7388103;19;20018;-85
2023/09/03 04:06:41;;;;;;;0.70;0.70;;;;;;;23.46;64.77;100899.56;7385928;19;20018;-85
2023/09/03 04:09:07;;;;;;;2.08;0.80;;;;;;;24.52;61.58;100898.50;7393747;19;20473;-85
2023/09/03 04:11:34;;;;;;;1.27;0.60;;;;;;;21.53;77.85;100906.06;7390902;19;20011;-85
2023/09/03 04:14:00;;;;;;;1.15;0.47;;;;;;;26.77;62.77;100902.16;7390126;19;20354;-84
2023/09/03 04:16:26;;;;;;;1.85;0.95;;;;;;;27.89;52.94;100899.47;7388513;19;20021;-84
2023/09/03 04:18:53;;;;;;;1.08;0.57;;;;;;;25.34;56.37;100895.97;7388602;19;20021;-85
2023/09/03 04:21:20;;;;;;;0.38;0.30;;;;;;;24.17;62.94;100893.25;7388120;19;20018;-85
2023/09/03 04:23:46;;;;;;;0.10;0.10;;;;;;;23.94;60.70;100890.00;7389183;19;20019;-85
2023/09/03 04:26:12;;;;;;;0.30;0.30;;;;;;;24.42;59.47;100886.03;7391046;19;20026;-84
2023/09/03 04:28:43;;;;;;;0.88;0.85;;;;;;;29.76;51.33;100871.53;7390055;19;20025;-84
2023/09/03 04:31:10;;;;;;;0.65;0.65;;;;;;;32.16;43.38;100868.41;7388949;19;20043;-85
2023/09/03 04:33:39;;;;;;;1.13;0.43;;;;;;;30.15;45.80;100869.88;7393883;19;20025;-85
2023/09/03 04:36:07;;;;;;;0.35;0.35;;;;;;;32.05;42.75;100868.97;7396106;19;20030;-84
2023/09/03 04:38:35;;;;;;;0.60;0.45;;;;;;;32.92;40.16;100872.72;7400502;19;20094;-84
2023/09/03 04:41:04;;;;;;;1.48;0.75;;;;;;;32.68;39.77;100878.16;7396404;19;20014;-85
2023/09/03 04:43:36;;;;;;;0.30;0.30;;;;;;;24.49;50.77;100891.84;7396737;19;20018;-85
2023/09/03 04:46:03;;;;;;;0.70;0.70;;;;;;;30.65;46.61;100888.53;7394306;19;20021;-85
2023/09/03 04:48:29;;;;;;;0.68;0.68;;;;;;;32.16;41.09;100879.91;7394830;19;20406;-85
2023/09/03 04:51:02;;;;;;;0.90;0.45;;;;;;;26.91;49.74;100892.16;7395624;19;20468;-85
2023/09/03 04:53:28;;;;;;;0.20;0.20;;;;;;;33.88;38.24;100882.66;7395346;19;20010;-85
2023/09/03 04:55:54;;;;;;;1.60;0.65;;;;;;;34.60;36.19;100881.19;7395429;19;20031;-85
2023/09/03 04:58:21;;;;;;;0.50;0.50;;;;;;;34.66;35.84;100875.03;7394946;19;20023;-85
2023/09/03 05:00:47;;;;;;;1.38;0.82;;;;;;;34.74;35.04;100869.81;7393842;19;20026;-85
2023/09/03 05:03:14;;;;;;;1.55;0.50;;;;;;;35.19;34.32;100879.28;7399131;19;20023;-84
2023/09/03 05:05:41;;;;;;;0.45;0.45;;;;;;;35.22;33.69;100873.00;7396345;19;20006;-85
2023/09/03 05:08:09;;;;;;;1.45;0.77;;;;;;;35.66;33.45;100878.78;7397569;19;20018;-85
2023/09/03 05:10:40;;;;;;;0.40;0.40;;;;;;;35.39;32.89;100875.53;7395669;19;20018;-83
2023/09/03 05:13:08;;;;;;;0.68;0.60;;;;;;;35.09;32.89;100882.28;7395470;19;20626;-85
2023/09/03 05:15:36;;;;;;;0.77;0.35;;;;;;;33.62;34.32;100880.78;7394947;19;20022;-84
2023/09/03 05:18:03;;;;;;;0.35;0.35;;;;;;;34.38;33.21;100890.44;7396670;19;20020;-84
2023/09/03 05:20:30;;;;;;;1.17;0.65;;;;;;;32.25;35.15;100882.03;7394046;19;20018;-84
2023/09/03 05:22:56;;;;;;;0.45;0.45;;;;;;;34.96;32.57;100877.03;7394871;19;20010;-84
2023/09/03 05:25:22;;;;;;;10.05;1.25;;;;;;;34.15;33.21;100877.38;7398046;19;20473;-85
2023/09/03 05:27:49;;;;;;;1.10;0.50;;;;;;;32.79;34.42;100883.31;7394226;19;20018;-85
2023/09/03 05:30:15;;;;;;;0.40;0.40;;;;;;;33.17;33.72;100884.69;7392817;19;20018;-85
2023/09/03 05:32:41;;;;;;;0.77;0.60;;;;;;;30.33;37.17;100885.81;7394659;19;20011;-86
2023/09/03 05:35:07;;;;;;;0.40;0.40;;;;;;;32.59;34.38;100887.59;7394791;19;20014;-85
2023/09/03 05:37:34;;;;;;;1.05;0.45;;;;;;;33.40;33.58;100884.94;7393035;19;20025;-84
2023/09/03 05:40:01;;;;;;;0.98;0.20;;;;;;;33.36;33.68;100885.41;7394464;19;20409;-85
2023/09/03 05:42:27;;;;;;;0.28;0.28;;;;;;;32.49;34.56;100889.69;7388956;19;20016;-85
2023/09/03 05:44:55;;;;;;;0.68;0.68;;;;;;;18.61;68.80;100921.97;7390781;19;20018;-84
2023/09/03 05:47:22;;;;;;;3.85;0.65;;;;;;;23.09;63.10;100902.41;7389367;19;20682;-84
2023/09/03 05:49:56;;;;;;;0.55;0.55;;;;;;;23.84;57.35;100905.94;7390715;19;20022;-84
2023/09/03 05:52:24;;;;;;;0.30;0.30;;;;;;;22.45;71.87;100915.56;7389884;19;20014;-84
2023/09/03 05:54:50;;;;;;;0.90;0.80;;;;;;;23.98;66.37;100896.91;7395244;19;20099;-85
2023/09/03 05:57:18;;;;;;;0.60;0.60;;;;;;;30.62;45.11;100888.97;7394694;19;20013;-84
2023/09/03 05:59:48;;;;;;;2.95;0.77;;;;;;;20.72;67.25;100900.31;7389011;19;20006;-84
2023/09/03 06:02:16;;;;;;;2.28;0.82;;;;;;;15.78;100.00;100915.25;7388136;19;20026;-84
2023/09/03 06:04:43;;;;;;;1.27;0.38;;;;;;;28.57;56.23;100885.13;7391431;19;20027;-84
2023/09/03 06:07:12;;;;;;;0.60;0.60;;;;;;;23.98;55.00;100896.91;7389522;19;20014;-85
2023/09/03 06:09:39;;;;;;;0.90;0.60;;;;;;;22.34;67.32;100905.13;7395884;19;20061;-85
2023/09/03 06:12:05;;;;;;;4.57;0.73;;;;;;;20.23;74.26;100904.81;7387702;19;20139;-83
2023/09/03 06:14:31;;;;;;;0.52;0.52;;;;;;;16.07;100.00;100920.81;7394634;19;20014;-83
2023/09/03 06:16:57;;;;;;;0.82;0.43;;;;;;;31.19;47.63;100889.44;7392208;19;20085;-85
2023/09/03 06:19:24;;;;;;;0.45;0.43;;;;;;;33.05;40.93;100896.09;7393076;19;20028;-85
2023/09/03 06:21:50;;;;;;;1.00;0.60;;;;;;;33.93;38.63;100898.16;7393123;19;20365;-85
2023/09/03 06:24:16;;;;;;;0.45;0.40;;;;;;;33.89;37.46;100892.84;7396318;19;20019;-85
2023/09/03 06:26:42;;;;;;;0.77;0.77;;;;;;;34.35;36.66;100899.00;7393224;19;20015;-84
2023/09/03 06:29:08;;;;;;;0.57;0.57;;;;;;;32.48;39.38;100908.38;7394205;19;20010;-85
2023/09/03 06:31:34;;;;;;;0.30;0.30;;;;;;;34.32;36.30;100917.59;7392549;19;20022;-85
2023/09/03 06:34:01;;;;;;;0.40;0.28;;;;;;;33.56;37.59;100912.13;7394019;19;20018;-84
2023/09/03 06:36:27;;;;;;;0.55;0.55;;;;;;;35.90;34.30;100911.44;7390890;19;20021;-84
2023/09/03 06:38:53;;;;;;;0.82;0.77;;;;;;;19.23;79.41;100949.94;7394410;19;20022;-85
2023/09/03 06:41:19;;;;;;;0.40;0.40;;;;;;;16.32;100.00;100948.28;7391049;19;20025;-84
2023/09/03 06:43:45;;;;;;;0.50;0.50;;;;;;;15.24;100.00;100957.88;7394874;19;20033;-85
2023/09/03 06:46:12;;;;;;;1.33;0.25;;;;;;;14.84;100.00;100950.69;7393712;19;20356;-84
2023/09/03 06:48:38;;;;;;;1.17;1.05;;;;;;;14.77;100.00;100951.06;7392857;19;20033;-84
2023/09/03 06:51:04;;;;;;;0.65;0.50;;;;;;;14.66;100.00;100950.81;7391287;19;20039;-84
2023/09/03 06:53:30;;;;;;;0.15;0.15;;;;;;;14.57;100.00;100964.13;7393197;19;20077;-85
2023/09/03 06:55:57;;;;;;;0.82;0.38;;;;;;;14.50;100.00;100956.84;7390673;19;20015;-84
2023/09/03 06:58:23;;;;;;;0.75;0.55;;;;;;;14.48;100.00;100950.94;7391789;19;20361;-83
2023/09/03 07:00:50;;;;;;;0.90;0.40;;;;;;;14.53;100.00;100955.88;7390451;19;20014;-85
2023/09/03 07:03:16;;;;;;;0.32;0.32;;;;;;;14.97;100.00;100968.06;7393396;19;20034;-85
2023/09/03 07:05:42;;;;;;;2.17;0.47;;;;;;;14.16;100.00;100968.50;7392947;19;20014;-85
2023/09/03 07:08:08;;;;;;;0.38;0.38;;;;;;;31.70;54.59;100936.75;7394079;19;20015;-84
2023/09/03 07:10:35;;;;;;;0.20;0.20;;;;;;;34.42;44.39;100926.19;7394521;19;20018;-85
2023/09/03 07:13:01;;;;;;;0.70;0.43;;;;;;;36.23;38.96;100920.03;7393871;19;20021;-85
2023/09/03 07:15:27;;;;;;;0.60;0.52;;;;;;;36.07;37.79;100927.72;7391638;19;20018;-85
2023/09/03 07:17:53;;;;;;;1.38;0.88;;;;;;;22.14;86.80;100950.19;7392824;19;20038;-85
2023/09/03 07:20:19;;;;;;;4.18;0.73;;;;;;;35.02;42.39;100938.31;7394385;19;20362;-84
2023/09/03 07:22:45;;;;;;;1.15;0.77;;;;;;;18.06;100.00;100962.59;7394144;19;20049;-85
2023/09/03 07:25:11;;;;;;;0.30;0.30;;;;;;;29.27;62.59;100948.97;7391239;19;20069;-84
2023/09/03 07:27:41;;;;;;;4.10;2.00;;;;;;;34.27;45.15;100938.94;7393547;19;20017;-85
2023/09/03 07:30:11;;;;;;;0.88;0.57;;;;;;;20.13;97.78;100963.69;7394105;19;20064;-85
2023/09/03 07:32:38;;;;;;;1.08;0.57;;;;;;;19.39;100.00;100969.00;7395093;19;20405;-86
2023/09/03 07:35:07;;;;;;;4.65;0.95;;;;;;;16.81;100.00;100977.59;7391705;19;20010;-85
2023/09/03 07:37:35;;;;;;;1.10;0.75;;;;;;;16.33;100.00;100977.94;7395031;19;20469;-86
2023/09/03 07:40:01;;;;;;;4.00;0.77;;;;;;;16.06;100.00;100980.31;7394070;19;20041;-86
2023/09/03 07:42:27;;;;;;;2.47;0.77;;;;;;;16.01;100.00;100978.94;7393604;19;20512;-86
2023/09/03 07:44:53;;;;;;;0.95;0.60;;;;;;;15.93;100.00;100984.22;7394202;19;20013;-87
2023/09/03 07:47:19;;;;;;;2.53;0.75;;;;;;;16.35;100.00;100986.66;7396181;19;20035;-86
2023/09/03 07:49:45;;;;;;;1.85;1.00;;;;;;;22.97;100.00;100977.75;7390297;19;20014;-86
2023/09/03 07:52:12;;;;;;;1.70;0.82;;;;;;;16.32;100.00;100984.84;7390567;19;20003;-86
2023/09/03 07:54:39;;;;;;;2.88;1.25;;;;;;;16.39;100.00;100986.47;7391710;19;20010;-85
2023/09/03 07:57:05;;;;;;;3.45;1.15;;;;;;;14.22;100.00;100994.63;7389850;19;20473;-87
2023/09/03 07:59:31;;;;;;;0.95;0.65;;;;;;;16.33;100.00;100988.44;7392154;19;20026;-88
2023/09/03 08:01:58;;;;;;;2.25;0.73;;;;;;;16.62;100.00;100988.38;7394731;19;20018;-87
2023/09/03 08:04:24;;;;;;;2.85;1.90;;;;;;;16.76;100.00;100981.16;7393345;19;20021;-87
2023/09/03 08:06:51;;;;;;;0.85;0.80;;;;;;;16.86;100.00;100985.38;7389766;19;20038;-87
2023/09/03 08:09:17;;;;;;;2.05;0.50;;;;;;;16.95;100.00;100983.19;7393670;19;20353;-89
2023/09/03 08:14:43;;;;;;;1.25;0.60;;;;;;;17.13;100.00;100988.53;7389501;19;20018;-57
2023/09/03 08:17:09;;;;;;;2.75;0.98;;;;;;;17.24;100.00;100979.44;7392327;19;20011;-56
2023/09/03 08:19:36;;;;;;;2.55;1.30;;;;;;;17.31;100.00;100987.47;7391103;19;20014;-57
2023/09/03 08:22:03;;;;;;;2.33;0.57;;;;;;;17.40;100.00;100984.50;7389537;19;20343;-57
2023/09/03 08:24:29;;;;;;;0.80;0.68;;;;;;;17.51;100.00;100989.50;7391138;19;20011;-57
2023/09/03 08:26:56;;;;;;;1.17;0.45;;;;;;;17.59;100.00;100991.38;7394237;19;20018;-57
2023/09/03 08:29:22;;;;;;;1.67;0.77;;;;;;;17.67;100.00;100989.66;7388182;19;20020;-57
2023/09/03 08:31:48;;;;;;;5.18;0.98;;;;;;;17.76;100.00;100997.19;7391988;19;20586;-55
2023/09/03 08:34:14;;;;;;;6.63;1.33;;;;;;;17.81;100.00;100996.47;7390765;19;20090;-55
2023/09/03 08:36:40;;;;;;;1.30;0.50;;;;;;;17.62;100.00;101004.47;7392439;19;20074;-55
2023/09/03 08:39:07;;;;;;;3.67;1.40;;;;;;;17.70;100.00;100990.72;7395936;19;20050;-55
2023/09/03 08:41:37;;;;;;;2.88;0.65;;;;;;;17.74;100.00;100991.25;7390248;19;20011;-55
2023/09/03 08:44:10;;;;;;;1.73;1.38;;;;;;;17.80;100.00;100994.94;7393385;19;20078;-55
2023/09/03 08:46:38;;;;;;;3.17;1.00;;;;;;;17.88;100.00;100996.81;7392336;19;20554;-55
2023/09/03 08:49:05;;;;;;;1.17;0.70;;;;;;;17.96;100.00;100994.28;7391538;19;20039;-55
2023/09/03 08:51:32;;;;;;;1.45;0.75;;;;;;;18.03;100.00;100997.44;7390238;19;20048;-56
2023/09/03 08:54:00;;;;;;;8.80;1.02;;;;;;;18.14;100.00;100997.53;7392556;19;20019;-55
2023/09/03 08:56:26;;;;;;;1.75;1.02;;;;;;;18.23;100.00;100998.63;7390794;19;20348;-55
2023/09/03 08:58:53;;;;;;;2.10;1.20;;;;;;;18.33;100.00;100991.50;7392327;19;20437;-56
2023/09/03 09:01:20;;;;;;;4.60;1.23;;;;;;;18.43;100.00;100995.72;7392298;19;20070;-55
2023/09/03 09:03:51;;;;;;;2.75;0.70;;;;;;;18.53;100.00;100992.22;7392025;19;20007;-55
2023/09/03 09:06:19;;;;;;;5.35;0.90;;;;;;;18.64;100.00;100989.47;7391951;19;20011;-55
2023/09/03 09:08:47;;;;;;;4.70;1.25;;;;;;;18.76;100.00;100991.06;7393112;19;20043;-56
2023/09/03 09:11:17;;;;;;;2.20;1.50;;;;;;;18.96;100.00;100986.53;7391699;19;20011;-56
2023/09/03 09:13:53;;;;;;;6.70;1.45;;;;;;;19.09;100.00;100990.47;7392153;19;20340;-55
2023/09/03 09:16:20;;;;;;;7.78;1.50;;;;;;;19.89;100.00;100988.88;7390268;19;20022;-55
2023/09/03 09:18:46;;;;;;;2.63;0.85;;;;;;;25.34;100.00;100992.94;7393046;19;20018;-55
2023/09/03 09:21:12;;;;;;;2.97;1.05;;;;;;;25.50;100.00;100994.72;7398023;19;20014;-55
2023/09/03 09:23:38;;;;;;;7.63;1.90;;;;;;;33.98;77.17;100981.66;7399132;19;20014;-56
2023/09/03 09:26:17;;;;;;;2.50;0.90;;;;;;;36.74;60.17;100976.09;7396612;19;20010;-55
2023/09/03 09:29:01;;;;;;;2.42;1.20;;;;;;;38.64;51.91;100973.84;7399065;19;20014;-56
2023/09/03 09:31:31;;;;;;;11.85;1.88;;;;;;;38.25;52.67;100973.97;7399186;19;20022;-55
2023/09/03 09:34:00;;;;;;;3.75;1.90;;;;;;;34.02;55.86;100982.00;7397002;19;20015;-55
2023/09/03 09:36:27;;;;;;;3.15;1.55;;;;;;;34.00;77.08;100978.16;7396799;19;20011;-56
2023/09/03 09:39:04;;;;;;;1.48;0.98;;;;;;;39.61;51.85;100981.72;7400298;19;20066;-56
2023/09/03 09:41:32;;;;;;;4.60;2.33;;;;;;;40.67;46.92;100974.28;7397323;19;20014;-56
2023/09/03 09:43:58;;;;;;;4.68;2.05;;;;;;;41.65;44.07;100966.00;7398956;19;20014;-55
2023/09/03 09:46:29;;;;;;;2.38;1.05;;;;;;;41.30;43.90;100969.69;7398058;19;20018;-56
2023/09/03 09:49:00;;;;;;;4.55;1.27;;;;;;;40.71;43.86;100971.53;7398037;19;20018;-55
2023/09/03 09:51:27;;;;;;;2.97;1.33;;;;;;;41.53;42.25;100969.19;7397577;19;20022;-55
2023/09/03 09:53:55;;;;;;;4.25;1.10;;;;;;;34.93;54.84;100973.84;7396351;19;20007;-56
2023/09/03 09:56:29;;;;;;;4.45;1.55;;;;;;;31.93;72.83;100974.63;7396473;19;20010;-56
2023/09/03 09:58:57;;;;;;;2.05;1.55;;;;;;;33.54;69.24;100981.34;7395650;19;20017;-56
2023/09/03 10:01:25;;;;;;;0.75;0.45;;;;;;;35.34;64.36;100978.09;7397066;19;20046;-56
2023/09/03 10:03:52;;;;;;;2.88;1.45;;;;;;;34.57;61.84;100988.72;7398754;19;20014;-56
2023/09/03 10:06:20;;;;;;;3.03;1.48;;;;;;;31.30;87.97;100983.13;7397238;19;20011;-56
2023/09/03 10:08:48;;;;;;;1.52;0.52;;;;;;;37.58;68.65;100969.47;7400131;19;20017;-57
2023/09/03 10:17:52;;;;;;;1.45;0.63;;;;;;;45.04;36.21;100972.84;7393193;19;20035;-57
2023/09/03 10:20:20;;;;;;;2.50;0.75;;;;;;;41.86;40.50;100956.59;7394248;19;20035;-58
2023/09/03 10:22:49;;;;;;;0.43;0.40;;;;;;;43.76;35.90;100964.03;7396096;19;19998;-58
2023/09/03 10:25:21;;;;;;;2.20;0.52;;;;;;;32.41;52.04;100977.69;7398450;19;20007;-59
2023/09/03 10:27:52;;;;;;;2.95;0.75;;;;;;;35.30;68.34;100972.03;7394628;19;20417;-59
2023/09/03 10:30:24;;;;;;;2.72;0.68;;;;;;;40.56;47.28;100972.31;7391510;19;20696;-58
2023/09/03 10:32:52;;;;;;;3.00;0.50;;;;;;;43.65;38.91;100968.09;7396171;19;20015;-59
2023/09/03 10:35:18;;;;;;;0.80;0.55;;;;;;;44.40;36.18;100962.28;7394908;19;20033;-59
2023/09/03 10:37:45;;;;;;;4.40;0.95;;;;;;;43.10;35.97;100965.56;7394093;19;20340;-59
2023/09/03 10:40:23;;;;;;;0.40;0.20;;;;;;;39.40;40.44;100971.19;7392453;19;20018;-59
2023/09/03 10:42:50;;;;;;;4.03;0.63;;;;;;;43.71;36.88;100976.34;7394264;19;20015;-59
2023/09/03 10:45:18;;;;;;;5.03;0.55;;;;;;;43.76;36.81;100966.97;7398191;19;20387;-60
2023/09/03 10:48:06;;;;;;;2.97;0.43;;;;;;;45.02;34.24;100961.03;7391105;19;20478;-59
2023/09/03 10:50:44;;;;;;;1.10;0.47;;;;;;;45.44;32.94;100961.34;7388503;19;20019;-60
2023/09/03 10:53:38;;;;;;;0.63;0.20;;;;;;;45.32;32.77;100964.00;7389651;19;20011;-60
2023/09/03 10:56:17;;;;;;;0.93;0.40;;;;;;;45.46;31.47;100960.66;7390179;19;20011;-60
2023/09/03 10:58:57;;;;;;;1.92;0.35;;;;;;;45.28;31.53;100958.03;7389131;19;20011;-60
2023/09/03 11:01:26;;;;;;;4.17;0.63;;;;;;;45.48;31.17;100964.41;7389375;19;20027;-60
2023/09/03 11:03:54;;;;;;;1.98;0.40;;;;;;;45.72;30.25;100953.16;7393348;19;20103;-59
2023/09/03 11:06:22;;;;;;;1.85;0.30;;;;;;;45.19;31.03;100950.44;7389929;19;20015;-59
2023/09/03 11:09:12;;;;;;;0.20;0.10;;;;;;;46.28;30.41;100949.94;7392022;19;20011;-59
2023/09/03 11:11:39;;;;;;;1.27;0.30;;;;;;;46.46;29.87;100951.06;7389576;19;20015;-59
2023/09/03 11:14:06;;;;;;;2.92;0.98;;;;;;;46.49;29.67;100951.84;7387112;19;20489;-56
2023/09/03 11:16:34;;;;;;;0.65;0.38;;;;;;;46.78;28.96;100953.91;7394881;19;20086;-56
2023/09/03 11:19:07;;;;;;;1.73;0.50;;;;;;;46.83;28.31;100951.78;7245856;19;2867103;-56
2023/09/03 11:21:35;;;;;;;0.90;0.20;;;;;;;47.10;28.87;100951.53;7392108;19;20018;-56
2023/09/03 11:24:17;;;;;;;0.30;0.22;;;;;;;47.17;28.32;100952.38;7392765;19;20014;-56
2023/09/03 11:26:44;;;;;;;0.40;0.38;;;;;;;46.86;28.57;100951.09;7392916;19;20010;-56
2023/09/03 11:29:26;;;;;;;1.42;0.30;;;;;;;46.98;28.35;100954.22;7395896;19;20018;-57
2023/09/03 13:44:06;;;;;;;0.22;0.00;;;;;;;37.86;34.32;100874.34;7395449;19;20378;-59
2023/09/03 13:46:33;;;;;;;1.25;0.28;;;;;;;39.16;35.06;100871.66;7400391;19;20066;-58
2023/09/03 13:49:13;;;;;;;2.33;0.40;;;;;;;44.65;28.90;100857.88;7396473;19;20003;-58
2023/09/03 13:51:44;;;;;;;2.55;0.20;;;;;;;43.45;29.88;100864.72;7394796;19;20014;-58